Time;durP1;ratioP1;P1;durP2;ratioP2;P2;SDS_P1;SDS_P2;PMS_P1;PMS_P2;Temp;Humidity;BMP_temperature;BMP_pressure;BME280_temperature;BME280_humidity;BME280_pressure;Samples;Min_cycle;Max_cycle;Signal;HPM_P1;HPM_P2
2021/11/11 00:01:29;;;;;;;67.68;45.20;;;180.00;2252.80;;;;;;5073653;28;20043;-82
2021/11/11 00:03:54;;;;;;;64.07;40.83;;;179.90;2252.80;;;;;;5056033;28;20040;-83
2021/11/11 00:06:20;;;;;;;59.92;37.97;;;179.70;2252.80;;;;;;5055772;28;20120;-84
2021/11/11 00:08:46;;;;;;;65.00;40.28;;;179.70;2252.80;;;;;;5055834;28;20021;-83
2021/11/11 00:11:12;;;;;;;54.95;36.67;;;179.70;2252.80;;;;;;5055893;28;20040;-84
2021/11/11 00:13:38;;;;;;;59.95;39.38;;;179.70;2252.80;;;;;;5073404;28;20033;-83
2021/11/11 00:16:04;;;;;;;75.63;45.45;;;179.70;2252.80;;;;;;5058947;28;20054;-84
2021/11/11 00:18:30;;;;;;;75.60;47.95;;;179.70;2252.80;;;;;;5060285;28;20024;-84
2021/11/11 00:20:56;;;;;;;79.63;50.40;;;179.70;2252.80;;;;;;5059673;28;20028;-84
2021/11/11 00:23:22;;;;;;;81.57;51.35;;;179.80;2252.80;;;;;;5078130;28;20028;-83
2021/11/11 00:25:48;;;;;;;77.32;49.00;;;179.90;2252.80;;;;;;5059868;28;20031;-83
2021/11/11 00:28:14;;;;;;;77.43;47.75;;;179.80;2252.80;;;;;;5059479;28;20028;-82
2021/11/11 00:30:39;;;;;;;76.45;46.42;;;179.70;2252.80;;;;;;5059598;28;20047;-83
2021/11/11 00:33:05;;;;;;;73.68;49.42;;;179.70;2252.80;;;;;;5077311;28;20048;-82
2021/11/11 00:35:33;;;;;;;64.63;42.22;;;179.70;2252.80;;;;;;5059377;28;20029;-83
2021/11/11 00:38:00;;;;;;;72.32;44.33;;;179.80;2252.80;;;;;;5059263;28;20078;-82
2021/11/11 00:40:30;;;;;;;75.65;46.97;;;179.70;2252.80;;;;;;5059537;28;20381;-82
2021/11/11 00:42:58;;;;;;;85.35;53.13;;;179.70;2252.80;;;;;;5059239;28;20029;-81
2021/11/11 00:45:24;;;;;;;90.20;58.20;;;179.80;2252.80;;;;;;5059350;28;20094;-84
2021/11/11 00:47:50;;;;;;;116.13;75.68;;;179.70;2252.80;;;;;;5059051;28;20024;-83
2021/11/11 00:50:19;;;;;;;147.25;98.50;;;179.70;2252.80;;;;;;5059292;28;20021;-85
2021/11/11 00:52:45;;;;;;;176.75;117.10;;;179.60;2252.80;;;;;;5077059;28;20020;-83
2021/11/11 00:55:11;;;;;;;201.63;131.98;;;179.50;2252.80;;;;;;5076986;28;20027;-83
2021/11/11 00:57:37;;;;;;;138.77;88.15;;;179.40;2252.80;;;;;;5059157;28;20020;-83
2021/11/11 01:00:06;;;;;;;144.82;93.50;;;154.50;2252.80;;;;;;5058568;28;20461;-83
2021/11/11 01:02:34;;;;;;;133.80;87.60;;;179.20;2252.80;;;;;;5076772;28;20385;-83
2021/11/11 01:05:00;;;;;;;97.10;64.78;;;179.30;2252.80;;;;;;5058904;28;20490;-82
2021/11/11 01:07:25;;;;;;;100.18;63.97;;;179.20;2252.80;;;;;;5077016;28;20029;-82
2021/11/11 01:09:51;;;;;;;89.10;59.15;;;179.30;2252.80;;;;;;5076617;28;20025;-83
2021/11/11 01:12:17;;;;;;;95.25;63.20;;;179.30;2252.80;;;;;;5058710;28;20036;-82
2021/11/11 01:14:43;;;;;;;97.13;60.47;;;179.30;2252.80;;;;;;5058683;28;20028;-82
2021/11/11 01:17:09;;;;;;;90.07;56.78;;;179.20;2252.80;;;;;;5058336;28;20454;-81
2021/11/11 01:19:35;;;;;;;106.13;63.25;;;154.50;2252.80;;;;;;5058587;28;20024;-82
2021/11/11 01:22:01;;;;;;;107.45;67.95;;;179.20;2252.80;;;;;;5058589;28;20028;-83
2021/11/11 01:24:27;;;;;;;90.75;53.20;;;154.50;2252.80;;;;;;5058253;28;20099;-83
2021/11/11 01:26:53;;;;;;;82.13;45.35;;;154.50;2252.80;;;;;;5057182;28;20036;-82
2021/11/11 01:29:18;;;;;;;75.10;41.58;;;154.50;2252.80;;;;;;5058692;28;20090;-83
2021/11/11 01:31:45;;;;;;;88.75;52.28;;;154.50;2252.80;;;;;;5058172;28;20037;-83
2021/11/11 01:34:11;;;;;;;109.80;62.90;;;179.30;2252.80;;;;;;5058408;28;20025;-83
2021/11/11 01:36:37;;;;;;;94.57;60.10;;;179.30;2252.80;;;;;;5058036;28;20028;-83
2021/11/11 01:39:05;;;;;;;104.45;62.10;;;179.40;2252.80;;;;;;5058149;28;20074;-82
2021/11/11 01:41:31;;;;;;;111.75;67.13;;;179.40;2252.80;;;;;;5058264;28;20024;-83
2021/11/11 01:43:57;;;;;;;115.28;72.05;;;179.50;2252.80;;;;;;5058105;28;20027;-82
2021/11/11 01:46:23;;;;;;;116.57;72.10;;;179.40;2252.80;;;;;;5058111;28;20028;-83
2021/11/11 01:48:49;;;;;;;108.45;66.07;;;179.30;2252.80;;;;;;5058037;28;20025;-83
2021/11/11 01:51:16;;;;;;;88.95;56.97;;;179.50;2252.80;;;;;;5057850;28;20040;-81
2021/11/11 01:53:42;;;;;;;93.63;63.15;;;179.50;2252.80;;;;;;5058179;28;20024;-82
2021/11/11 01:56:08;;;;;;;84.18;52.92;;;179.70;2252.80;;;;;;5057964;28;20025;-83
2021/11/11 01:58:34;;;;;;;87.70;53.10;;;179.60;2252.80;;;;;;5057719;28;20363;-83
2021/11/11 02:01:00;;;;;;;87.88;56.13;;;179.50;2252.80;;;;;;5057950;28;20461;-82
2021/11/11 02:03:26;;;;;;;73.65;46.28;;;179.40;2252.80;;;;;;5057818;28;20029;-83
2021/11/11 02:05:52;;;;;;;66.82;40.80;;;179.30;2252.80;;;;;;5057731;28;20036;-83
2021/11/11 02:08:19;;;;;;;72.00;38.92;;;179.20;2252.80;;;;;;5075534;28;20025;-83
2021/11/11 02:10:45;;;;;;;68.95;39.33;;;154.50;2252.80;;;;;;5057602;28;20428;-84
2021/11/11 02:13:12;;;;;;;61.63;37.97;;;154.50;2252.80;;;;;;5057468;28;20119;-84
2021/11/11 02:15:38;;;;;;;48.58;29.80;;;154.50;2252.80;;;;;;5075434;28;20025;-84
2021/11/11 02:18:07;;;;;;;40.70;25.88;;;154.50;2252.80;;;;;;5057710;28;20052;-84
2021/11/11 02:20:36;;;;;;;75.25;36.70;;;154.50;2252.80;;;;;;5057011;28;20028;-84
2021/11/11 02:23:04;;;;;;;161.73;62.10;;;154.30;2252.80;;;;;;5075135;28;20028;-84
2021/11/11 02:25:31;;;;;;;114.07;49.92;;;154.10;2252.80;;;;;;5075401;28;20533;-84
2021/11/11 02:28:10;;;;;;;233.93;77.53;;;154.30;2252.80;;;;;;5057185;28;20074;-84
2021/11/11 02:30:38;;;;;;;319.95;109.25;;;154.20;2252.80;;;;;;5075194;28;20036;-84
2021/11/11 02:33:16;;;;;;;206.98;80.05;;;154.40;2252.80;;;;;;5057062;28;20496;-84
2021/11/11 02:35:43;;;;;;;141.02;63.35;;;154.30;2252.80;;;;;;5057210;28;20032;-82
2021/11/11 02:38:10;;;;;;;105.97;52.28;;;154.30;2252.80;;;;;;5056771;28;20052;-84
2021/11/11 02:40:36;;;;;;;146.73;72.43;;;154.40;2252.80;;;;;;5057105;28;20095;-82
2021/11/11 02:43:03;;;;;;;91.28;46.70;;;154.20;2252.80;;;;;;5075217;28;20033;-84
2021/11/11 02:45:32;;;;;;;39.97;24.60;;;179.40;2252.80;;;;;;5056959;28;20048;-84
2021/11/11 02:47:59;;;;;;;33.83;22.52;;;154.20;2252.80;;;;;;5056964;28;20027;-83
2021/11/11 02:50:26;;;;;;;29.40;18.90;;;154.30;2252.80;;;;;;5056849;28;20489;-84
2021/11/11 02:52:53;;;;;;;30.10;20.08;;;154.20;2252.80;;;;;;5056905;28;20052;-84
2021/11/11 02:55:19;;;;;;;30.52;20.42;;;154.10;2252.80;;;;;;5056909;28;20115;-84
2021/11/11 02:57:46;;;;;;;40.60;24.35;;;154.10;2252.80;;;;;;5056769;28;20028;-82
2021/11/11 03:00:26;;;;;;;41.08;26.80;;;154.20;2252.80;;;;;;5074703;28;20029;-83
2021/11/11 03:02:52;;;;;;;38.72;23.95;;;154.30;2252.80;;;;;;5056631;28;20025;-84
2021/11/11 03:05:21;;;;;;;47.05;29.45;;;154.30;2252.80;;;;;;5074439;28;20024;-84
2021/11/11 03:07:48;;;;;;;49.78;32.20;;;154.30;2252.80;;;;;;5056390;28;20034;-83
2021/11/11 03:10:20;;;;;;;47.05;31.10;;;154.30;2252.80;;;;;;5056571;28;20062;-83
2021/11/11 03:12:47;;;;;;;49.17;32.15;;;154.30;2252.80;;;;;;5056754;28;20055;-84
2021/11/11 03:15:14;;;;;;;50.17;31.88;;;154.40;2252.80;;;;;;5056354;28;20040;-84
2021/11/11 03:17:41;;;;;;;58.90;34.97;;;154.00;2252.80;;;;;;5056451;28;20032;-84
2021/11/11 03:20:10;;;;;;;50.70;31.63;;;154.50;2252.80;;;;;;5056183;28;20025;-83
2021/11/11 03:22:36;;;;;;;41.88;28.00;;;154.10;2252.80;;;;;;5073839;28;20045;-84
2021/11/11 03:25:02;;;;;;;50.28;32.13;;;154.10;2252.80;;;;;;5056457;28;20572;-84
2021/11/11 03:27:30;;;;;;;42.88;27.27;;;154.10;2252.80;;;;;;5056241;28;20115;-83
2021/11/11 03:29:56;;;;;;;39.97;25.42;;;154.10;2252.80;;;;;;5055886;28;20025;-84
2021/11/11 03:32:22;;;;;;;85.43;46.58;;;153.90;2252.80;;;;;;5056026;28;20046;-84
2021/11/11 03:34:49;;;;;;;155.70;76.63;;;153.80;2252.80;;;;;;5056239;28;20031;-84
2021/11/11 03:37:16;;;;;;;184.82;93.43;;;153.70;2252.80;;;;;;5074104;28;20029;-83
2021/11/11 03:39:43;;;;;;;192.45;96.35;;;153.60;2252.80;;;;;;5052536;28;20044;-84
2021/11/11 03:42:10;;;;;;;130.95;63.08;;;153.70;2252.80;;;;;;5052733;28;20386;-83
2021/11/11 03:44:38;;;;;;;99.97;49.08;;;153.70;2252.80;;;;;;5052506;28;20031;-83
2021/11/11 03:47:04;;;;;;;95.93;44.50;;;153.80;2252.80;;;;;;5052646;28;20083;-83
2021/11/11 03:49:35;;;;;;;79.28;37.03;;;153.90;2252.80;;;;;;5052777;28;20075;-83
2021/11/11 03:52:01;;;;;;;65.63;35.33;;;154.00;2252.80;;;;;;5052655;28;20032;-84
2021/11/11 03:54:28;;;;;;;76.57;36.60;;;154.00;2252.80;;;;;;5052520;28;20118;-83
2021/11/11 03:56:58;;;;;;;77.32;36.42;;;154.00;2252.80;;;;;;5052366;28;20025;-83
2021/11/11 03:59:27;;;;;;;83.45;34.50;;;154.00;2252.80;;;;;;5052550;28;20029;-83
2021/11/11 04:01:54;;;;;;;55.20;28.42;;;154.00;2252.80;;;;;;5053823;28;20040;-84
2021/11/11 04:04:20;;;;;;;50.75;26.90;;;154.00;2252.80;;;;;;5052304;28;20025;-84
2021/11/11 04:06:47;;;;;;;57.08;28.23;;;154.00;2252.80;;;;;;5052440;28;20071;-84
2021/11/11 04:09:13;;;;;;;88.75;33.63;;;154.00;2252.80;;;;;;5053713;28;20040;-84
2021/11/11 04:11:39;;;;;;;123.55;41.67;;;153.90;2252.80;;;;;;5053312;28;20040;-84
2021/11/11 04:14:06;;;;;;;134.20;44.47;;;153.70;2252.80;;;;;;5052407;28;20029;-83
2021/11/11 04:16:33;;;;;;;123.97;42.28;;;153.80;2252.80;;;;;;5052363;28;20025;-84
2021/11/11 04:18:59;;;;;;;76.05;32.10;;;153.80;2252.80;;;;;;5051966;28;20025;-84
2021/11/11 04:21:25;;;;;;;65.82;29.08;;;153.80;2252.80;;;;;;5053292;28;20033;-84
2021/11/11 04:23:52;;;;;;;79.55;35.22;;;153.80;2252.80;;;;;;5052462;28;20116;-83
2021/11/11 04:27:04;;;;;;;62.08;29.92;;;153.80;2252.80;;;;;;5053288;28;20017;-83
2021/11/11 04:32:09;;;;;;;41.78;25.50;;;153.70;2252.80;;;;;;5040818;28;20382;-83
2021/11/11 04:34:36;;;;;;;40.58;25.55;;;153.60;2252.80;;;;;;5052098;28;20489;-83
2021/11/11 04:42:35;;;;;;;75.68;49.22;;;128.50;2252.80;;;;;;5053402;28;20040;-85
2021/11/11 04:45:20;;;;;;;56.53;38.67;;;128.60;2252.80;;;;;;5052473;28;20069;-84
2021/11/11 05:01:17;;;;;;;112.45;73.88;;;128.80;2252.80;;;;;;5054682;28;20083;-84
2021/11/11 05:03:47;;;;;;;110.82;66.28;;;128.80;2252.80;;;;;;5055937;28;20037;-84
2021/11/11 05:06:14;;;;;;;55.03;33.78;;;128.80;2252.80;;;;;;5055593;28;20082;-84
2021/11/11 05:08:40;;;;;;;53.45;33.25;;;128.80;2252.80;;;;;;5055545;28;20390;-84
2021/11/11 05:11:06;;;;;;;51.10;32.85;;;128.70;2252.80;;;;;;5055431;28;20044;-82
2021/11/11 05:13:33;;;;;;;85.50;58.70;;;128.70;2252.80;;;;;;5055250;28;20031;-80
2021/11/11 05:15:58;;;;;;;99.38;62.90;;;128.80;2252.80;;;;;;5055418;28;20025;-84
2021/11/11 05:18:25;;;;;;;78.10;53.35;;;128.80;2252.80;;;;;;5055418;28;20033;-84
2021/11/11 05:20:51;;;;;;;80.85;53.38;;;128.80;2252.80;;;;;;5056346;28;20025;-84
2021/11/11 05:23:17;;;;;;;86.38;46.80;;;128.90;2252.80;;;;;;5055406;28;20686;-84
2021/11/11 05:25:43;;;;;;;53.92;34.50;;;128.80;2252.80;;;;;;5055147;28;20037;-81
2021/11/11 05:28:23;;;;;;;57.50;35.28;;;128.80;2252.80;;;;;;5054996;28;20025;-84
2021/11/11 05:30:51;;;;;;;70.07;47.22;;;128.90;2252.80;;;;;;5054656;28;20037;-83
2021/11/11 05:33:17;;;;;;;65.47;45.03;;;128.90;2252.80;;;;;;5054927;28;20031;-84
2021/11/11 05:35:42;;;;;;;76.45;48.17;;;128.90;2252.80;;;;;;5054751;28;20043;-84
2021/11/11 05:38:08;;;;;;;65.03;41.95;;;128.90;2252.80;;;;;;5057730;28;20060;-84
2021/11/11 05:40:34;;;;;;;58.15;40.80;;;128.80;2252.80;;;;;;5058390;28;20115;-82
2021/11/11 05:43:00;;;;;;;59.60;42.80;;;128.70;2252.80;;;;;;5057851;28;20166;-83
2021/11/11 05:45:26;;;;;;;64.30;47.55;;;128.60;2252.80;;;;;;5058274;28;20025;-83
2021/11/11 05:47:52;;;;;;;100.63;71.80;;;128.70;2252.80;;;;;;5076584;28;20025;-82
2021/11/11 05:50:19;;;;;;;103.57;71.55;;;128.70;2252.80;;;;;;5076086;28;20477;-83
2021/11/11 05:52:45;;;;;;;87.75;62.25;;;154.20;2252.80;;;;;;5058159;28;20029;-84
2021/11/11 05:55:11;;;;;;;85.25;58.20;;;153.90;2252.80;;;;;;5058155;28;20094;-83
2021/11/11 05:57:37;;;;;;;89.38;59.97;;;128.80;2252.80;;;;;;5057841;28;20029;-83
2021/11/11 06:00:12;;;;;;;99.28;66.22;;;153.60;2252.80;;;;;;5057745;28;20028;-82
2021/11/11 06:02:38;;;;;;;162.07;88.07;;;153.70;2252.80;;;;;;5057640;28;20115;-82
2021/11/11 06:05:04;;;;;;;207.30;117.13;;;153.70;2252.80;;;;;;5075835;28;20044;-84
2021/11/11 06:07:30;;;;;;;168.77;99.88;;;153.70;2252.80;;;;;;5057793;28;20107;-84
2021/11/11 06:09:56;;;;;;;103.13;61.60;;;128.80;2252.80;;;;;;5057365;28;20079;-84
2021/11/11 06:12:21;;;;;;;123.95;81.70;;;128.70;2252.80;;;;;;5074960;28;20055;-83
2021/11/11 06:14:47;;;;;;;114.93;75.05;;;128.50;2252.80;;;;;;5057845;28;20355;-85
2021/11/11 06:17:13;;;;;;;98.80;67.60;;;128.60;2252.80;;;;;;5075400;28;20035;-84
2021/11/11 06:19:41;;;;;;;92.43;64.13;;;128.80;2252.80;;;;;;5057589;28;20359;-84
2021/11/11 06:22:07;;;;;;;69.97;50.88;;;128.40;2252.80;;;;;;5057400;28;20484;-84
2021/11/11 06:24:33;;;;;;;60.65;47.25;;;128.20;2252.80;;;;;;5057282;28;20032;-84
2021/11/11 06:26:59;;;;;;;50.15;38.60;;;128.30;2252.80;;;;;;5057464;28;20020;-83
2021/11/11 06:29:25;;;;;;;38.45;27.73;;;128.50;2252.80;;;;;;5057602;28;20031;-82
2021/11/11 06:31:51;;;;;;;36.08;25.85;;;128.80;2252.80;;;;;;5057226;28;20043;-82
2021/11/11 06:34:17;;;;;;;179.18;136.90;;;128.80;2252.80;;;;;;5057590;28;20099;-83
2021/11/11 06:36:43;;;;;;;112.55;85.00;;;128.70;2252.80;;;;;;5057284;28;20032;-83
2021/11/11 06:39:09;;;;;;;124.78;92.72;;;128.80;2252.80;;;;;;5057160;28;20041;-82
2021/11/11 06:41:35;;;;;;;214.70;145.85;;;128.80;2252.80;;;;;;5057119;28;20029;-79
2021/11/11 06:44:01;;;;;;;134.73;89.38;;;128.60;2252.80;;;;;;5056813;28;20078;-79
2021/11/11 06:46:27;;;;;;;68.07;40.67;;;128.60;2252.80;;;;;;5056555;28;20025;-79
2021/11/11 06:48:53;;;;;;;45.25;29.85;;;153.60;2252.80;;;;;;5056605;28;20038;-81
2021/11/11 06:51:19;;;;;;;37.65;24.30;;;153.80;2252.80;;;;;;5056589;28;20119;-81
2021/11/11 06:53:45;;;;;;;45.47;26.67;;;153.80;2252.80;;;;;;5056499;28;20136;-84
2021/11/11 06:56:11;;;;;;;35.85;22.67;;;153.70;2252.80;;;;;;5075134;28;20096;-84
2021/11/11 06:58:38;;;;;;;30.58;21.98;;;153.60;2252.80;;;;;;5056446;28;20123;-83
2021/11/11 07:01:04;;;;;;;36.50;25.60;;;153.80;2252.80;;;;;;5056595;28;20036;-83
2021/11/11 07:03:30;;;;;;;38.80;26.35;;;154.00;2252.80;;;;;;5056964;28;20024;-83
2021/11/11 07:05:58;;;;;;;34.97;22.05;;;154.00;2252.80;;;;;;5056465;28;20111;-82
2021/11/11 07:08:24;;;;;;;35.60;24.75;;;154.10;2252.80;;;;;;5061063;28;20021;-77
2021/11/11 07:10:52;;;;;;;38.17;27.10;;;154.20;2252.80;;;;;;5071257;28;20039;-76
2021/11/11 07:13:19;;;;;;;40.05;27.70;;;154.30;2252.80;;;;;;5083810;28;20044;-77
2021/11/11 07:15:46;;;;;;;43.63;29.70;;;154.40;2252.80;;;;;;5067024;28;20025;-79
2021/11/11 07:18:13;;;;;;;48.55;30.70;;;154.40;2252.80;;;;;;5069081;28;20025;-77
2021/11/11 07:20:43;;;;;;;46.85;30.95;;;154.40;2252.80;;;;;;5070822;28;20048;-76
2021/11/11 07:23:10;;;;;;;39.38;27.15;;;154.50;2252.80;;;;;;5089475;28;20067;-77
2021/11/11 07:25:36;;;;;;;39.05;27.35;;;154.50;2252.80;;;;;;5088471;28;20103;-77
2021/11/11 07:28:02;;;;;;;32.45;24.92;;;179.20;2252.80;;;;;;5071939;28;20033;-76
2021/11/11 07:30:28;;;;;;;65.05;35.97;;;179.30;2252.80;;;;;;5089496;28;20050;-81
2021/11/11 07:32:54;;;;;;;48.35;33.20;;;179.20;2252.80;;;;;;5092560;28;20032;-78
2021/11/11 07:35:20;;;;;;;43.03;27.55;;;179.30;2252.80;;;;;;5073344;28;20374;-81
2021/11/11 07:37:50;;;;;;;54.55;39.80;;;179.40;2252.80;;;;;;5072025;28;20028;-80
2021/11/11 07:40:20;;;;;;;50.33;34.20;;;179.40;2252.80;;;;;;5053342;28;20029;-80
2021/11/11 07:42:47;;;;;;;44.67;29.00;;;179.50;2252.80;;;;;;5071480;28;20025;-80
2021/11/11 07:45:16;;;;;;;36.90;25.60;;;179.50;2252.80;;;;;;5044369;28;20033;-81
2021/11/11 07:47:42;;;;;;;36.45;24.25;;;179.70;2252.80;;;;;;5053537;28;20021;-81
2021/11/11 07:50:10;;;;;;;39.35;27.02;;;179.70;2252.80;;;;;;5036112;28;20025;-82
2021/11/11 07:52:35;;;;;;;42.80;27.85;;;179.80;2252.80;;;;;;5035816;28;20098;-82
2021/11/11 07:55:02;;;;;;;33.63;24.38;;;180.00;2252.80;;;;;;5035911;28;20467;-81
2021/11/11 07:57:31;;;;;;;36.17;22.77;;;180.10;2252.80;;;;;;5054127;28;20431;-82
2021/11/11 07:59:57;;;;;;;25.65;18.95;;;180.10;2252.80;;;;;;5036156;28;20021;-81
2021/11/11 08:02:24;;;;;;;28.13;19.85;;;180.10;2252.80;;;;;;5035726;28;20039;-81
2021/11/11 08:04:52;;;;;;;31.77;21.13;;;204.90;2252.80;;;;;;5035788;28;20069;-82
2021/11/11 08:07:18;;;;;;;27.27;19.35;;;204.90;2252.80;;;;;;5036169;28;20039;-81
2021/11/11 08:09:51;;;;;;;26.67;20.58;;;205.00;2252.80;;;;;;5053788;28;20417;-81
2021/11/11 08:12:18;;;;;;;30.75;20.85;;;205.10;2252.80;;;;;;5053816;28;20069;-81
2021/11/11 08:14:44;;;;;;;25.05;19.38;;;205.50;2252.80;;;;;;5036183;28;20445;-81
2021/11/11 08:17:11;;;;;;;29.90;20.88;;;205.20;2252.80;;;;;;5035702;28;20052;-80
2021/11/11 08:19:39;;;;;;;26.77;19.70;;;205.30;2252.80;;;;;;5035793;28;20053;-81
2021/11/11 08:22:05;;;;;;;32.80;22.23;;;205.40;2252.80;;;;;;5035678;28;20029;-81
2021/11/11 08:24:31;;;;;;;31.23;20.80;;;205.40;2252.80;;;;;;5035310;28;20481;-80
2021/11/11 08:26:57;;;;;;;34.65;24.08;;;205.50;2252.80;;;;;;5035615;28;20128;-80
2021/11/11 08:29:23;;;;;;;39.40;27.52;;;205.70;2252.80;;;;;;5035526;28;20033;-81
2021/11/11 08:31:49;;;;;;;34.92;23.85;;;205.70;2252.80;;;;;;5035132;28;20037;-81
2021/11/11 08:34:15;;;;;;;39.70;26.92;;;230.40;2252.80;;;;;;5035520;28;20025;-80
2021/11/11 08:36:41;;;;;;;36.95;25.27;;;230.40;2252.80;;;;;;5037572;28;20025;-81
2021/11/11 08:39:07;;;;;;;47.65;34.17;;;230.40;2252.80;;;;;;5046739;28;20060;-79
2021/11/11 08:41:32;;;;;;;42.90;30.55;;;230.60;2252.80;;;;;;5056027;28;20139;-81
2021/11/11 08:43:58;;;;;;;38.65;24.92;;;230.60;2252.80;;;;;;5056812;28;20370;-81
2021/11/11 08:46:25;;;;;;;39.58;25.85;;;230.70;2252.80;;;;;;5057423;28;20028;-81
2021/11/11 08:48:52;;;;;;;29.63;22.45;;;230.90;2252.80;;;;;;5055835;28;20052;-81
2021/11/11 08:51:18;;;;;;;49.30;34.80;;;230.80;2252.80;;;;;;5055378;28;20063;-81
2021/11/11 08:53:44;;;;;;;54.22;36.63;;;230.90;2252.80;;;;;;5055874;28;20466;-81
2021/11/11 08:56:10;;;;;;;32.70;25.88;;;230.90;2252.80;;;;;;5055848;28;20463;-80
2021/11/11 08:58:37;;;;;;;30.83;23.42;;;231.00;2252.80;;;;;;5055305;28;20070;-80
2021/11/11 09:01:06;;;;;;;30.52;21.92;;;231.00;2252.80;;;;;;5055664;28;20037;-80
2021/11/11 09:03:35;;;;;;;30.25;21.52;;;231.10;2252.80;;;;;;5055707;28;20025;-81
2021/11/11 09:06:02;;;;;;;26.05;19.05;;;231.10;2252.80;;;;;;5055143;28;20025;-81
2021/11/11 09:08:29;;;;;;;28.73;19.30;;;231.20;2252.80;;;;;;5055434;28;20123;-80
2021/11/11 09:10:56;;;;;;;31.13;21.00;;;256.00;2252.80;;;;;;5055309;28;20040;-80
2021/11/11 09:13:22;;;;;;;28.73;19.98;;;256.10;2252.80;;;;;;5056131;28;20386;-81
2021/11/11 09:15:48;;;;;;;24.40;18.10;;;256.20;2252.80;;;;;;5056781;28;20025;-81
2021/11/11 09:18:14;;;;;;;20.02;14.88;;;256.20;2252.80;;;;;;5055256;28;20025;-81
2021/11/11 09:20:40;;;;;;;19.48;14.20;;;256.00;2252.80;;;;;;5054931;28;20478;-81
2021/11/11 09:23:07;;;;;;;24.98;16.70;;;256.20;2252.80;;;;;;5055270;28;20033;-81
2021/11/11 09:25:34;;;;;;;25.63;17.98;;;256.40;2252.80;;;;;;5054919;28;20028;-80
2021/11/11 09:28:01;;;;;;;23.88;16.63;;;256.40;2252.80;;;;;;5054912;28;20056;-83
2021/11/11 09:30:31;;;;;;;27.00;19.63;;;256.40;2252.80;;;;;;5055340;28;20029;-81
2021/11/11 09:32:57;;;;;;;27.23;20.70;;;256.60;2252.80;;;;;;5055016;28;20021;-80
2021/11/11 09:35:24;;;;;;;29.95;19.33;;;256.70;2252.80;;;;;;5055222;28;20040;-80
2021/11/11 09:37:51;;;;;;;22.45;17.85;;;256.80;2252.80;;;;;;5055274;28;20021;-80
2021/11/11 09:40:21;;;;;;;25.08;17.42;;;256.80;2252.80;;;;;;5076253;28;20026;-80
2021/11/11 09:42:47;;;;;;;22.80;17.92;;;256.90;2252.80;;;;;;5076147;28;20029;-81
2021/11/11 09:45:16;;;;;;;32.63;20.77;;;256.70;2252.80;;;;;;5076135;28;20033;-80
2021/11/11 09:47:45;;;;;;;27.50;18.60;;;281.60;2278.40;;;;;;5074919;28;20029;-80
2021/11/11 09:50:12;;;;;;;31.17;19.95;;;281.70;2278.40;;;;;;5075953;28;20028;-81
2021/11/11 09:52:40;;;;;;;24.10;16.33;;;281.80;2278.40;;;;;;5076198;28;20033;-80
2021/11/11 10:00:37;;;;;;;33.63;24.30;;;282.20;2278.40;;;;;;5075913;28;20472;-80
2021/11/11 10:03:05;;;;;;;29.42;19.45;;;282.30;2278.40;;;;;;5076431;28;20025;-80
2021/11/11 10:05:32;;;;;;;30.13;20.35;;;282.50;2278.40;;;;;;5057958;28;20024;-79
2021/11/11 10:07:59;;;;;;;31.15;20.05;;;282.50;2278.40;;;;;;5057685;28;20029;-80
2021/11/11 10:10:34;;;;;;;30.05;21.08;;;282.50;2278.40;;;;;;5057736;28;20031;-80
2021/11/11 10:13:12;;;;;;;26.42;19.67;;;307.30;2304.00;;;;;;5057813;28;20062;-79
2021/11/11 10:16:02;;;;;;;26.88;19.25;;;307.30;2304.00;;;;;;5057687;28;20028;-80
2021/11/11 10:18:40;;;;;;;26.13;19.63;;;307.30;2304.00;;;;;;5057650;28;20390;-80
2021/11/11 10:21:26;;;;;;;27.83;19.48;;;307.40;2304.00;;;;;;5057790;28;20029;-80
2021/11/11 10:23:52;;;;;;;26.67;18.85;;;307.60;2304.00;;;;;;5057271;28;20024;-79
2021/11/11 10:26:38;;;;;;;26.83;19.23;;;307.60;2304.00;;;;;;5057416;28;20082;-80
2021/11/11 10:29:07;;;;;;;27.00;18.90;;;307.60;2304.00;;;;;;5057249;28;20028;-80
2021/11/11 10:31:33;;;;;;;27.90;18.08;;;307.70;2304.00;;;;;;5057914;28;20127;-79
2021/11/11 10:34:09;;;;;;;25.23;16.05;;;307.90;2304.00;;;;;;5075208;28;20095;-80
2021/11/11 10:36:45;;;;;;;28.70;16.83;;;308.00;2304.00;;;;;;5056917;28;20531;-79
2021/11/11 10:39:22;;;;;;;21.33;14.98;;;332.80;2329.60;;;;;;5057006;28;20059;-80
2021/11/11 10:41:48;;;;;;;21.25;14.77;;;332.80;2329.60;;;;;;5075034;28;20373;-80
2021/11/11 10:44:24;;;;;;;17.95;14.18;;;332.90;2329.60;;;;;;5074637;28;20024;-79
2021/11/11 10:46:57;;;;;;;23.30;16.80;;;333.00;2329.60;;;;;;5057301;28;20031;-79
2021/11/11 10:49:28;;;;;;;27.17;19.90;;;333.00;2329.60;;;;;;5075144;28;20032;-79
2021/11/11 10:51:56;;;;;;;28.33;18.55;;;333.10;2329.60;;;;;;5075049;28;20036;-79
2021/11/11 10:54:22;;;;;;;22.90;14.52;;;333.30;2329.60;;;;;;5075007;28;20075;-80
2021/11/11 10:56:49;;;;;;;28.75;17.92;;;333.30;2329.60;;;;;;5056458;28;20029;-79
2021/11/11 10:59:18;;;;;;;23.65;16.60;;;333.30;2329.60;;;;;;5056444;28;20108;-82
2021/11/11 11:01:59;;;;;;;23.90;15.73;;;333.40;2329.60;;;;;;5074718;28;20056;-82
2021/11/11 11:04:29;;;;;;;21.55;15.57;;;333.60;2329.60;;;;;;5056561;28;20024;-83
2021/11/11 11:07:17;;;;;;;23.83;15.90;;;358.40;2329.60;;;;;;5056753;28;20048;-80
2021/11/11 11:09:43;;;;;;;21.60;15.52;;;358.50;2329.60;;;;;;5056494;28;20052;-80
2021/11/11 11:12:31;;;;;;;23.92;17.88;;;358.60;2329.60;;;;;;5056234;28;20086;-82
2021/11/11 11:14:57;;;;;;;21.27;15.23;;;358.80;2329.60;;;;;;5056472;28;20039;-81
2021/11/11 11:17:23;;;;;;;27.35;19.60;;;359.00;2329.60;;;;;;5056410;28;20028;-82
2021/11/11 11:19:49;;;;;;;23.17;17.20;;;359.20;2329.60;;;;;;5056110;28;20059;-82
2021/11/11 11:22:25;;;;;;;21.92;15.63;;;384.10;2329.60;;;;;;5056370;28;20058;-84
2021/11/11 11:25:03;;;;;;;16.50;12.88;;;384.40;2329.60;;;;;;5055926;28;20028;-81
2021/11/11 11:27:35;;;;;;;19.10;14.23;;;384.70;2329.60;;;;;;5073338;28;20087;-78
2021/11/11 11:30:22;;;;;;;27.77;16.77;;;409.60;2355.20;;;;;;5074537;28;20074;-79
2021/11/11 11:32:54;;;;;;;24.55;16.60;;;409.70;2355.20;;;;;;5056015;28;20036;-79
2021/11/11 11:35:21;;;;;;;17.38;13.15;;;410.20;2355.20;;;;;;5056076;28;20025;-81
2021/11/11 11:37:47;;;;;;;17.75;13.23;;;410.30;2304.00;;;;;;5073597;28;20056;-83
2021/11/11 11:40:18;;;;;;;19.90;14.75;;;410.50;2304.00;;;;;;5073528;28;20083;-79
2021/11/11 11:42:46;;;;;;;20.30;14.73;;;435.40;2278.40;;;;;;5056061;28;20028;-80
2021/11/11 11:45:14;;;;;;;18.05;13.63;;;435.50;2227.20;;;;;;5055769;28;20020;-81
2021/11/11 11:47:45;;;;;;;19.25;14.38;;;435.40;2201.60;;;;;;5055577;28;20073;-82
2021/11/11 11:50:24;;;;;;;16.42;11.75;;;435.50;2201.60;;;;;;5073990;28;20027;-81
2021/11/11 11:52:57;;;;;;;18.00;13.02;;;435.50;2150.40;;;;;;5062287;28;20044;-80
2021/11/11 11:57:57;;;;;;;19.45;13.18;;;435.70;2150.40;;;;;;5078506;28;20035;-81
2021/11/11 12:03:20;;;;;;;24.67;16.23;;;435.90;2099.20;;;;;;5073593;28;20032;-81
2021/11/11 12:06:22;;;;;;;16.83;12.90;;;435.90;2099.20;;;;;;5053680;28;20099;-79
2021/11/11 12:14:28;;;;;;;16.83;13.52;;;436.10;2048.00;;;;;;5075978;28;20051;-79
2021/11/11 12:28:33;;;;;;;18.90;15.10;;;460.90;2022.40;;;;;;5076416;28;20048;-79
2021/11/11 12:40:31;;;;;;;21.05;15.00;;;460.90;1971.20;;;;;;5076076;28;20106;-78
2021/11/11 12:43:11;;;;;;;22.10;15.43;;;460.90;1971.20;;;;;;5084201;28;20028;-78
2021/11/11 12:45:37;;;;;;;30.92;20.58;;;460.90;1971.20;;;;;;5077997;28;20085;-79
2021/11/11 12:48:19;;;;;;;36.25;23.38;;;460.80;1945.60;;;;;;5078003;28;20099;-79
2021/11/11 12:51:10;;;;;;;30.90;22.02;;;436.10;1920.00;;;;;;5095750;28;20434;-78
2021/11/11 12:53:47;;;;;;;37.35;23.55;;;436.10;1920.00;;;;;;5095323;28;20036;-79
2021/11/11 12:56:18;;;;;;;38.67;27.08;;;436.00;1920.00;;;;;;5059823;28;20046;-79
2021/11/11 12:58:57;;;;;;;37.70;24.23;;;436.00;1945.60;;;;;;5056946;28;20086;-79
2021/11/11 13:01:25;;;;;;;34.00;24.52;;;435.90;1971.20;;;;;;5050665;28;20040;-79
2021/11/11 13:03:56;;;;;;;33.60;22.25;;;435.70;1971.20;;;;;;5075118;28;20032;-79